createdAt,value
2022-09-28T00:01:23.798Z,65.82
2022-09-28T00:03:59.948Z,64.85
2022-09-28T00:06:30.474Z,63.32
2022-09-28T00:08:58.613Z,61.98
2022-09-28T00:11:28.333Z,61.61
2022-09-28T00:14:00.238Z,60.03
2022-09-28T00:16:33.162Z,57.97
2022-09-28T00:19:01.713Z,59.92
2022-09-28T00:21:34.698Z,65.92
2022-09-28T00:24:18.031Z,65.18
2022-09-28T00:26:52.188Z,63.51
2022-09-28T00:29:34.347Z,61.92
2022-09-28T00:32:13.496Z,60.08
2022-09-28T00:34:46.116Z,58.52
2022-09-28T00:37:15.361Z,60.69
2022-09-28T00:39:44.048Z,65.67
2022-09-28T00:42:17.632Z,63.82
2022-09-28T00:44:48.321Z,62.01
2022-09-28T00:47:34.773Z,60.16
2022-09-28T00:50:10.418Z,58.31
2022-09-28T00:52:54.900Z,60.20
2022-09-28T00:55:36.357Z,66.55
2022-09-28T00:58:09.107Z,64.36
2022-09-28T01:00:37.939Z,61.46
2022-09-28T01:03:05.866Z,60.68
2022-09-28T01:05:35.256Z,58.99
2022-09-28T01:08:05.547Z,58.92
2022-09-28T01:10:34.059Z,61.52
2022-09-28T01:13:01.958Z,67.79
2022-09-28T01:15:31.931Z,67.25
2022-09-28T01:18:32.331Z,63.68
2022-09-28T01:21:20.339Z,60.74
2022-09-28T01:24:04.313Z,58.80
2022-09-28T01:26:56.316Z,60.89
2022-09-28T01:29:26.950Z,66.83
2022-09-28T01:32:30.059Z,64.68
2022-09-28T01:37:47.904Z,59.56
2022-09-28T01:40:17.525Z,60.43
2022-09-28T01:42:53.280Z,64.42
2022-09-28T01:45:31.317Z,63.74
2022-09-28T01:48:04.925Z,60.12
2022-09-28T01:50:43.011Z,58.87
2022-09-28T01:53:16.918Z,62.78
2022-09-28T01:55:54.947Z,65.24
2022-09-28T01:58:46.101Z,60.89
2022-09-28T02:01:24.093Z,58.61
2022-09-28T02:04:08.334Z,62.97
2022-09-28T02:06:49.268Z,64.94
2022-09-28T02:09:33.046Z,61.44
2022-09-28T02:12:10.850Z,58.63
2022-09-28T02:14:44.169Z,59.17
2022-09-28T02:17:12.947Z,65.33
2022-09-28T02:19:41.505Z,65.00
2022-09-28T02:22:28.200Z,62.39
2022-09-28T02:24:58.109Z,60.62
2022-09-28T02:27:44.796Z,59.67
2022-09-28T02:30:13.200Z,57.84
2022-09-28T02:32:45.210Z,61.26
2022-09-28T02:35:17.063Z,65.60
2022-09-28T02:37:46.410Z,63.76
2022-09-28T02:40:20.815Z,60.91
2022-09-28T02:43:13.715Z,58.48
2022-09-28T02:45:56.683Z,58.96
2022-09-28T02:48:43.625Z,65.20
2022-09-28T02:51:54.378Z,62.94
2022-09-28T02:55:03.290Z,58.89
2022-09-28T02:57:33.884Z,61.10
2022-09-28T03:00:12.966Z,66.20
2022-09-28T03:03:12.916Z,65.70
2022-09-28T03:06:00.468Z,61.48
2022-09-28T03:08:38.378Z,60.46
2022-09-28T03:11:28.849Z,58.32
2022-09-28T03:13:57.794Z,59.61
2022-09-28T03:16:35.744Z,64.83
2022-09-28T03:19:03.965Z,64.47
2022-09-28T03:21:31.871Z,62.05
2022-09-28T03:23:59.786Z,61.33
2022-09-28T03:26:27.682Z,58.49
2022-09-28T03:28:55.587Z,57.97
2022-09-28T03:31:24.676Z,59.41
2022-09-28T03:33:53.026Z,65.07
2022-09-28T03:36:20.852Z,66.64
2022-09-28T03:38:48.901Z,64.05
2022-09-28T03:41:16.891Z,61.06
2022-09-28T03:43:45.152Z,57.76
2022-09-28T03:46:14.296Z,57.84
2022-09-28T03:48:46.329Z,59.41
2022-09-28T03:51:14.405Z,65.25
2022-09-28T03:53:42.367Z,65.37
2022-09-28T03:56:17.528Z,63.25
2022-09-28T03:58:45.502Z,60.24
2022-09-28T04:01:18.297Z,56.95
2022-09-28T04:03:54.685Z,57.31
2022-09-28T04:06:24.129Z,57.86
2022-09-28T04:08:52.674Z,64.68
2022-09-28T04:11:42.839Z,66.19
2022-09-28T04:14:17.570Z,61.98
2022-09-28T04:16:45.695Z,58.38
2022-09-28T04:19:24.337Z,58.60
2022-09-28T04:22:18.075Z,60.10
2022-09-28T04:24:46.569Z,67.43
2022-09-28T04:27:33.036Z,67.18
2022-09-28T04:30:01.954Z,62.70
2022-09-28T04:32:31.219Z,60.26
2022-09-28T04:34:59.141Z,57.99
2022-09-28T04:37:27.105Z,58.51
2022-09-28T04:39:54.995Z,61.14
2022-09-28T04:42:22.932Z,67.30
2022-09-28T04:44:51.641Z,66.24
2022-09-28T04:47:19.576Z,62.35
2022-09-28T04:49:50.042Z,59.51
2022-09-28T04:52:32.267Z,57.97
2022-09-28T04:55:00.170Z,59.37
2022-09-28T04:57:28.110Z,65.77
2022-09-28T04:59:55.929Z,63.93
2022-09-28T05:02:24.711Z,60.54
2022-09-28T05:05:12.741Z,57.75
2022-09-28T05:07:50.044Z,61.15
2022-09-28T05:10:19.999Z,66.14
2022-09-28T05:12:48.362Z,64.66
2022-09-28T05:15:17.784Z,62.48
2022-09-28T05:17:45.691Z,61.60
2022-09-28T05:20:22.979Z,60.55
2022-09-28T05:22:50.915Z,57.79
2022-09-28T05:25:19.685Z,57.74
2022-09-28T05:27:57.461Z,59.04
2022-09-28T05:30:47.744Z,65.11
2022-09-28T05:33:27.228Z,64.24
2022-09-28T05:36:11.279Z,60.74
2022-09-28T05:38:39.273Z,56.62
2022-09-28T05:41:07.277Z,57.19
2022-09-28T05:43:35.339Z,60.00
2022-09-28T05:46:06.583Z,65.00
2022-09-28T05:48:37.168Z,63.09
2022-09-28T05:51:05.262Z,60.10
2022-09-28T05:53:33.123Z,57.03
2022-09-28T05:56:01.410Z,57.15
2022-09-28T05:58:32.253Z,60.22
2022-09-28T06:01:00.706Z,65.86
2022-09-28T06:03:28.901Z,64.17
2022-09-28T06:05:56.879Z,58.70
2022-09-28T06:08:25.486Z,57.20
2022-09-28T06:11:07.609Z,60.68
2022-09-28T06:13:35.816Z,65.26
2022-09-28T06:16:05.059Z,63.44
2022-09-28T06:18:33.065Z,60.14
2022-09-28T06:21:17.739Z,57.21
2022-09-28T06:23:49.369Z,59.70
2022-09-28T06:26:19.093Z,65.03
2022-09-28T06:28:47.282Z,64.76
2022-09-28T06:31:15.982Z,61.42
2022-09-28T06:33:49.083Z,57.60
2022-09-28T06:36:19.837Z,58.05
2022-09-28T06:38:47.873Z,59.37
2022-09-28T06:41:20.155Z,64.31
2022-09-28T06:43:48.754Z,62.45
2022-09-28T06:46:35.795Z,57.02
2022-09-28T06:49:35.789Z,58.80
2022-09-28T06:52:50.220Z,60.88
2022-09-28T06:55:50.330Z,66.97
2022-09-28T06:58:21.038Z,62.61
2022-09-28T07:00:51.889Z,57.85
2022-09-28T07:03:22.658Z,57.26
2022-09-28T07:06:14.800Z,59.93
2022-09-28T07:09:04.798Z,64.90
2022-09-28T07:11:59.809Z,62.54
2022-09-28T07:14:48.077Z,56.77
2022-09-28T07:17:16.981Z,56.57
2022-09-28T07:19:44.907Z,58.23
2022-09-28T07:22:18.728Z,60.70
2022-09-28T07:24:48.938Z,62.31
2022-09-28T07:27:39.692Z,57.26
2022-09-28T07:30:40.683Z,56.43
2022-09-28T07:33:16.121Z,59.79
2022-09-28T07:35:58.242Z,61.67
2022-09-28T07:38:29.819Z,58.41
2022-09-28T07:41:11.751Z,57.85
2022-09-28T07:43:45.003Z,59.09
2022-09-28T07:46:21.379Z,59.85
2022-09-28T07:48:57.194Z,59.82
2022-09-28T07:54:31.821Z,62.57
2022-09-28T07:57:19.561Z,56.80
2022-09-28T07:59:55.165Z,55.17
2022-09-28T08:02:41.728Z,57.09
2022-09-28T08:05:10.163Z,58.30
2022-09-28T08:07:58.891Z,59.16
2022-09-28T08:10:51.069Z,59.63
2022-09-28T08:13:48.400Z,60.07
2022-09-28T08:16:56.704Z,61.13
2022-09-28T08:26:38.372Z,59.69
2022-09-28T08:29:32.949Z,59.90
2022-09-28T08:36:04.872Z,59.43
2022-09-28T08:38:51.393Z,59.54
2022-09-28T08:42:00.026Z,60.23
2022-09-28T08:44:57.978Z,60.06
2022-09-28T08:48:22.398Z,59.78
2022-09-28T08:51:24.378Z,60.21
2022-09-28T08:54:45.041Z,60.58
2022-09-28T08:58:25.362Z,59.91
2022-09-28T09:00:54.331Z,58.82
2022-09-28T09:03:45.468Z,58.46
2022-09-28T09:07:21.597Z,58.74
2022-09-28T09:10:12.377Z,59.04
2022-09-28T09:12:41.292Z,59.31
2022-09-28T09:15:34.081Z,58.22
2022-09-28T09:18:23.541Z,57.14
2022-09-28T09:21:20.131Z,56.86
2022-09-28T09:23:56.687Z,55.74
2022-09-28T09:26:39.279Z,55.72
2022-09-28T09:29:30.001Z,56.74
2022-09-28T09:32:12.105Z,54.61
2022-09-28T09:35:23.416Z,52.29
2022-09-28T09:38:40.360Z,52.85
2022-09-28T09:45:36.078Z,52.74
2022-09-28T09:48:43.381Z,51.68
2022-09-28T09:51:30.352Z,52.04
2022-09-28T09:54:37.847Z,51.81
2022-09-28T09:57:29.361Z,51.46
2022-09-28T10:00:17.573Z,51.93
2022-09-28T10:03:04.995Z,51.78
2022-09-28T10:05:48.186Z,52.10
2022-09-28T10:08:20.496Z,52.50
2022-09-28T10:10:53.196Z,51.97
2022-09-28T10:13:24.598Z,52.53
2022-09-28T10:15:55.652Z,51.81
2022-09-28T10:18:31.444Z,51.04
2022-09-28T10:21:21.772Z,51.04
2022-09-28T10:24:02.900Z,50.93
2022-09-28T10:26:41.753Z,51.30
2022-09-28T10:29:23.367Z,51.55
2022-09-28T10:31:58.381Z,51.51
2022-09-28T10:34:40.203Z,52.06
2022-09-28T10:37:14.891Z,51.40
2022-09-28T10:40:05.961Z,50.20
2022-09-28T10:42:36.315Z,49.86
2022-09-28T10:45:23.998Z,49.81
2022-09-28T10:47:52.282Z,49.45
2022-09-28T10:50:24.779Z,49.79
2022-09-28T10:53:22.715Z,50.47
2022-09-28T10:56:20.978Z,49.54
2022-09-28T10:58:52.242Z,49.60
2022-09-28T11:01:40.514Z,49.74
2022-09-28T11:04:28.175Z,50.43
2022-09-28T11:07:03.302Z,50.75
2022-09-28T11:09:35.092Z,52.07
2022-09-28T11:12:16.386Z,50.56
2022-09-28T11:14:44.919Z,50.52
2022-09-28T11:17:17.231Z,49.30
2022-09-28T11:19:45.977Z,48.78
2022-09-28T11:22:31.244Z,48.89
2022-09-28T11:25:17.495Z,47.58
2022-09-28T11:27:54.323Z,46.84
2022-09-28T11:30:29.564Z,46.12
2022-09-28T11:33:41.842Z,46.61
2022-09-28T11:37:02.613Z,46.66
2022-09-28T11:39:52.928Z,46.13
2022-09-28T11:42:41.044Z,45.32
2022-09-28T11:45:21.778Z,45.39
2022-09-28T11:47:52.919Z,45.81
2022-09-28T11:50:28.549Z,46.91
2022-09-28T11:53:04.687Z,47.13
2022-09-28T11:55:38.430Z,46.93
2022-09-28T11:58:14.821Z,46.44
2022-09-28T12:00:53.729Z,46.15
2022-09-28T12:03:44.727Z,46.11
2022-09-28T12:06:18.313Z,45.25
2022-09-28T12:08:54.233Z,45.08
2022-09-28T12:11:36.491Z,44.75
2022-09-28T12:14:45.713Z,46.12
2022-09-28T12:17:29.848Z,47.22
2022-09-28T12:20:16.941Z,47.71
2022-09-28T12:22:54.854Z,48.09
2022-09-28T12:25:24.666Z,48.66
2022-09-28T12:28:12.901Z,49.24
2022-09-28T12:30:43.941Z,50.02
2022-09-28T12:33:17.799Z,50.31
2022-09-28T12:35:56.129Z,50.17
2022-09-28T12:38:42.470Z,49.95
2022-09-28T12:41:22.664Z,49.90
2022-09-28T12:44:17.433Z,49.31
2022-09-28T12:47:00.835Z,48.55
2022-09-28T12:52:58.074Z,47.94
2022-09-28T12:55:44.050Z,48.08
2022-09-28T12:58:30.527Z,48.93
2022-09-28T13:01:04.231Z,49.11
2022-09-28T13:04:27.769Z,49.61
2022-09-28T13:07:41.116Z,49.59
2022-09-28T13:10:33.305Z,49.87
2022-09-28T13:13:22.799Z,50.71
2022-09-28T13:16:05.026Z,51.12
2022-09-28T13:19:16.113Z,51.79
2022-09-28T13:22:06.632Z,51.93
2022-09-28T13:24:43.988Z,50.79
2022-09-28T13:27:19.537Z,51.12
2022-09-28T13:29:50.412Z,51.51
2022-09-28T13:32:19.075Z,51.53
2022-09-28T13:34:50.600Z,51.44
2022-09-28T13:37:24.488Z,51.55
2022-09-28T13:39:53.627Z,51.57
2022-09-28T13:42:39.018Z,51.80
2022-09-28T13:45:24.934Z,52.13
2022-09-28T13:48:05.369Z,52.55
2022-09-28T13:50:47.220Z,53.49
2022-09-28T13:53:33.916Z,53.17
2022-09-28T13:56:26.471Z,53.71
2022-09-28T13:59:18.256Z,53.84
2022-09-28T14:02:07.079Z,53.86
2022-09-28T14:04:54.927Z,54.55
2022-09-28T14:07:35.081Z,54.93
2022-09-28T14:10:24.853Z,55.02
2022-09-28T14:12:55.059Z,55.17
2022-09-28T14:15:28.840Z,55.41
2022-09-28T14:18:33.672Z,55.78
2022-09-28T14:21:32.057Z,56.17
2022-09-28T14:24:34.361Z,56.61
2022-09-28T14:27:17.540Z,56.80
2022-09-28T14:29:55.604Z,56.99
2022-09-28T14:32:33.263Z,57.33
2022-09-28T14:35:05.028Z,57.63
2022-09-28T14:37:58.843Z,57.78
2022-09-28T14:41:12.678Z,57.91
2022-09-28T14:43:44.121Z,58.08
2022-09-28T14:46:12.039Z,57.79
2022-09-28T14:49:20.415Z,57.92
2022-09-28T14:51:48.281Z,57.91
2022-09-28T14:54:27.984Z,58.38
2022-09-28T14:57:15.436Z,58.43
2022-09-28T14:59:46.260Z,58.50
2022-09-28T15:02:25.140Z,58.43
2022-09-28T15:05:14.389Z,58.64
2022-09-28T15:07:52.295Z,58.65
2022-09-28T15:10:37.238Z,58.78
2022-09-28T15:13:16.713Z,58.69
2022-09-28T15:15:50.577Z,58.46
2022-09-28T15:18:18.555Z,58.51
2022-09-28T15:20:49.278Z,58.66
2022-09-28T15:23:33.032Z,58.73
2022-09-28T15:26:02.544Z,58.99
2022-09-28T15:28:34.322Z,59.04
2022-09-28T15:31:04.882Z,59.26
2022-09-28T15:33:53.611Z,59.25
2022-09-28T15:36:27.953Z,59.56
2022-09-28T15:39:01.848Z,59.48
2022-09-28T15:41:31.244Z,59.62
2022-09-28T15:44:12.747Z,59.89
2022-09-28T15:46:48.077Z,60.20
2022-09-28T15:49:44.091Z,60.41
2022-09-28T15:52:27.628Z,60.53
2022-09-28T15:54:55.970Z,60.70
2022-09-28T15:58:19.806Z,61.08
2022-09-28T16:00:49.953Z,61.34
2022-09-28T16:03:17.808Z,61.36
2022-09-28T16:06:07.048Z,61.72
2022-09-28T16:08:43.985Z,61.82
2022-09-28T16:11:17.888Z,62.03
2022-09-28T16:14:07.298Z,65.99
2022-09-28T16:16:53.350Z,67.36
2022-09-28T16:19:25.547Z,64.78
2022-09-28T16:21:56.536Z,57.23
2022-09-28T16:24:33.481Z,54.90
2022-09-28T16:27:41.114Z,55.52
2022-09-28T16:30:15.189Z,56.90
2022-09-28T16:32:49.749Z,57.35
2022-09-28T16:35:23.611Z,59.11
2022-09-28T16:38:14.874Z,60.49
2022-09-28T16:40:51.862Z,59.34
2022-09-28T16:43:29.106Z,60.72
2022-09-28T16:46:00.482Z,61.00
2022-09-28T16:48:33.931Z,64.82
2022-09-28T16:51:02.140Z,64.44
2022-09-28T16:53:49.304Z,57.21
2022-09-28T16:56:17.736Z,55.33
2022-09-28T16:58:48.156Z,56.24
2022-09-28T17:01:16.214Z,57.25
2022-09-28T17:03:47.082Z,58.58
2022-09-28T17:06:17.036Z,58.60
2022-09-28T17:08:45.173Z,59.14
2022-09-28T17:11:24.203Z,60.20
2022-09-28T17:13:56.826Z,61.10
2022-09-28T17:19:23.961Z,65.40
2022-09-28T17:21:52.765Z,58.42
2022-09-28T17:24:20.937Z,55.67
2022-09-28T17:26:51.154Z,56.47
2022-09-28T17:29:19.676Z,57.37
2022-09-28T17:31:47.702Z,58.10
2022-09-28T17:34:16.761Z,59.15
2022-09-28T17:36:45.240Z,59.42
2022-09-28T17:39:15.658Z,60.23
2022-09-28T17:41:43.659Z,64.74
2022-09-28T17:44:15.446Z,66.45
2022-09-28T17:46:49.220Z,62.61
2022-09-28T17:49:18.372Z,58.17
2022-09-28T17:51:46.379Z,55.60
2022-09-28T17:54:16.934Z,56.08
2022-09-28T17:56:45.586Z,56.85
2022-09-28T17:59:16.461Z,57.93
2022-09-28T18:01:44.533Z,58.74
2022-09-28T18:04:33.426Z,59.98
2022-09-28T18:07:01.754Z,65.66
2022-09-28T18:09:29.782Z,64.85
2022-09-28T18:12:04.219Z,57.77
2022-09-28T18:14:32.401Z,55.79
2022-09-28T18:17:00.340Z,56.76
2022-09-28T18:19:31.894Z,57.56
2022-09-28T18:22:01.495Z,58.30
2022-09-28T18:24:32.646Z,59.11
2022-09-28T18:27:00.822Z,60.20
2022-09-28T18:29:33.427Z,64.96
2022-09-28T18:32:02.629Z,67.21
2022-09-28T18:34:30.688Z,62.96
2022-09-28T18:36:59.288Z,57.47
2022-09-28T18:39:27.605Z,56.35
2022-09-28T18:41:55.764Z,56.91
2022-09-28T18:44:24.171Z,60.06
2022-09-28T18:46:52.335Z,63.99
2022-09-28T18:49:21.620Z,64.36
2022-09-28T18:51:50.113Z,58.58
2022-09-28T18:54:18.300Z,57.10
2022-09-28T18:56:46.243Z,58.97
2022-09-28T18:59:15.423Z,59.70
2022-09-28T19:01:43.621Z,64.14
2022-09-28T19:04:12.980Z,67.04
2022-09-28T19:06:43.144Z,63.32
2022-09-28T19:09:13.211Z,58.70
2022-09-28T19:11:41.615Z,56.77
2022-09-28T19:14:11.529Z,57.57
2022-09-28T19:16:39.482Z,58.81
2022-09-28T19:19:07.658Z,63.14
2022-09-28T19:21:35.669Z,66.25
2022-09-28T19:24:04.277Z,63.99
2022-09-28T19:26:33.052Z,59.26
2022-09-28T19:29:03.018Z,57.70
2022-09-28T19:31:32.853Z,58.92
2022-09-28T19:34:00.700Z,63.78
2022-09-28T19:36:28.791Z,65.84
2022-09-28T19:38:58.276Z,62.78
2022-09-28T19:41:44.928Z,58.60
2022-09-28T19:44:25.098Z,60.18
2022-09-28T19:47:04.230Z,63.75
2022-09-28T19:49:36.985Z,63.16
2022-09-28T19:52:18.074Z,62.51
2022-09-28T19:54:56.660Z,58.96
2022-09-28T19:57:27.812Z,58.72
2022-09-28T20:00:05.668Z,60.43
2022-09-28T20:02:35.260Z,65.26
2022-09-28T20:05:03.406Z,66.38
2022-09-28T20:07:33.409Z,63.41
2022-09-28T20:10:01.319Z,61.57
2022-09-28T20:12:29.349Z,58.80
2022-09-28T20:14:57.913Z,58.25
2022-09-28T20:17:31.809Z,59.90
2022-09-28T20:19:59.721Z,65.24
2022-09-28T20:22:27.803Z,66.49
2022-09-28T20:24:55.737Z,63.27
2022-09-28T20:27:26.708Z,61.29
2022-09-28T20:29:54.981Z,58.59
2022-09-28T20:32:22.910Z,58.56
2022-09-28T20:34:50.953Z,60.41
2022-09-28T20:37:19.468Z,65.48
2022-09-28T20:39:47.485Z,66.04
2022-09-28T20:42:15.627Z,63.64
2022-09-28T20:44:44.066Z,61.77
2022-09-28T20:47:11.979Z,58.93
2022-09-28T20:49:39.972Z,57.92
2022-09-28T20:52:07.820Z,60.45
2022-09-28T20:54:35.744Z,65.51
2022-09-28T20:57:17.465Z,66.52
2022-09-28T20:59:54.312Z,63.71
2022-09-28T21:02:22.984Z,61.13
2022-09-28T21:04:51.009Z,58.50
2022-09-28T21:07:20.366Z,58.35
2022-09-28T21:09:48.553Z,59.97
2022-09-28T21:12:17.130Z,65.61
2022-09-28T21:14:44.961Z,66.26
2022-09-28T21:17:12.896Z,63.20
2022-09-28T21:19:41.014Z,61.48
2022-09-28T21:22:08.962Z,58.72
2022-09-28T21:24:37.238Z,58.31
2022-09-28T21:27:07.741Z,59.80
2022-09-28T21:29:35.563Z,65.74
2022-09-28T21:32:03.469Z,66.01
2022-09-28T21:34:32.449Z,63.34
2022-09-28T21:37:00.434Z,61.18
2022-09-28T21:39:28.375Z,58.83
2022-09-28T21:41:56.205Z,59.59
2022-09-28T21:44:24.130Z,63.42
2022-09-28T21:46:52.002Z,64.24
2022-09-28T21:49:20.038Z,62.16
2022-09-28T21:51:47.933Z,59.47
2022-09-28T21:54:15.941Z,59.69
2022-09-28T21:56:44.032Z,64.32
2022-09-28T21:59:11.908Z,64.56
2022-09-28T22:01:41.955Z,61.60
2022-09-28T22:04:10.640Z,58.98
2022-09-28T22:06:39.099Z,59.06
2022-09-28T22:09:08.173Z,63.75
2022-09-28T22:11:37.010Z,63.55
2022-09-28T22:14:05.004Z,61.94
2022-09-28T22:16:32.962Z,59.82
2022-09-28T22:19:01.203Z,59.94
2022-09-28T22:21:32.751Z,63.72
2022-09-28T22:24:02.850Z,63.23
2022-09-28T22:26:33.772Z,61.72
2022-09-28T22:29:05.112Z,58.90
2022-09-28T22:31:35.493Z,58.12
2022-09-28T22:34:04.074Z,60.87
2022-09-28T22:36:33.348Z,65.32
2022-09-28T22:39:01.358Z,66.19
2022-09-28T22:41:30.062Z,62.73
2022-09-28T22:43:59.202Z,60.84
2022-09-28T22:46:29.445Z,60.15
2022-09-28T22:48:59.268Z,58.04
2022-09-28T22:51:29.887Z,58.75
2022-09-28T22:53:58.167Z,63.67
2022-09-28T22:56:26.321Z,65.06
2022-09-28T22:58:54.269Z,62.66
2022-09-28T23:01:25.160Z,61.93
2022-09-28T23:03:54.394Z,60.13
2022-09-28T23:06:26.143Z,58.15
2022-09-28T23:08:54.260Z,59.17
2022-09-28T23:11:22.297Z,64.03
2022-09-28T23:13:51.575Z,64.69
2022-09-28T23:16:20.499Z,61.80
2022-09-28T23:18:49.334Z,60.66
2022-09-28T23:21:19.897Z,58.43
2022-09-28T23:23:53.345Z,58.60
2022-09-28T23:26:27.455Z,64.59
2022-09-28T23:28:56.215Z,64.23
2022-09-28T23:31:28.069Z,61.83
2022-09-28T23:34:01.499Z,61.01
2022-09-28T23:36:29.884Z,59.69
2022-09-28T23:38:58.254Z,58.72
2022-09-28T23:41:26.446Z,60.60
2022-09-28T23:43:57.413Z,65.24
2022-09-28T23:46:25.737Z,67.06
2022-09-28T23:48:53.776Z,64.12
2022-09-28T23:51:21.693Z,61.38
2022-09-28T23:53:49.672Z,60.53
2022-09-28T23:56:17.765Z,58.81
2022-09-28T23:58:45.750Z,59.04
